sensor_id;sensor_type;location;lat;lon;timestamp;P1;durP1;ratioP1;P2;durP2;ratioP2
8574;SDS011;4325;42.520;27.448;2022-08-23T00:02:07;9.07;;;8.27;;
8574;SDS011;4325;42.520;27.448;2022-08-23T00:04:36;9.23;;;8.37;;
8574;SDS011;4325;42.520;27.448;2022-08-23T00:07:12;9.77;;;8.83;;
8574;SDS011;4325;42.520;27.448;2022-08-23T00:09:41;10.43;;;8.53;;
8574;SDS011;4325;42.520;27.448;2022-08-23T00:12:10;8.27;;;7.60;;
8574;SDS011;4325;42.520;27.448;2022-08-23T00:14:41;9.30;;;8.60;;
8574;SDS011;4325;42.520;27.448;2022-08-23T00:17:10;9.87;;;8.40;;
8574;SDS011;4325;42.520;27.448;2022-08-23T00:19:38;10.00;;;9.07;;
8574;SDS011;4325;42.520;27.448;2022-08-23T00:22:08;10.37;;;9.27;;
8574;SDS011;4325;42.520;27.448;2022-08-23T00:24:35;9.67;;;8.87;;
8574;SDS011;4325;42.520;27.448;2022-08-23T00:27:04;10.70;;;9.60;;
8574;SDS011;4325;42.520;27.448;2022-08-23T00:29:37;10.57;;;9.47;;
8574;SDS011;4325;42.520;27.448;2022-08-23T00:32:07;9.73;;;8.87;;
8574;SDS011;4325;42.520;27.448;2022-08-23T00:34:37;9.60;;;8.83;;
8574;SDS011;4325;42.520;27.448;2022-08-23T00:37:24;10.17;;;9.03;;
8574;SDS011;4325;42.520;27.448;2022-08-23T00:40:00;9.10;;;8.17;;
8574;SDS011;4325;42.520;27.448;2022-08-23T00:42:33;11.30;;;10.30;;
8574;SDS011;4325;42.520;27.448;2022-08-23T00:45:25;15.30;;;12.93;;
8574;SDS011;4325;42.520;27.448;2022-08-23T00:48:15;13.53;;;12.33;;
8574;SDS011;4325;42.520;27.448;2022-08-23T00:50:47;10.33;;;9.43;;
8574;SDS011;4325;42.520;27.448;2022-08-23T00:53:22;10.63;;;9.53;;
8574;SDS011;4325;42.520;27.448;2022-08-23T00:55:53;9.57;;;8.70;;
8574;SDS011;4325;42.520;27.448;2022-08-23T00:58:25;11.07;;;10.00;;
8574;SDS011;4325;42.520;27.448;2022-08-23T01:00:53;11.40;;;10.40;;
8574;SDS011;4325;42.520;27.448;2022-08-23T01:03:22;11.43;;;9.73;;
8574;SDS011;4325;42.520;27.448;2022-08-23T01:05:53;10.33;;;9.53;;
8574;SDS011;4325;42.520;27.448;2022-08-23T01:08:28;11.00;;;9.47;;
8574;SDS011;4325;42.520;27.448;2022-08-23T01:10:59;10.10;;;9.30;;
8574;SDS011;4325;42.520;27.448;2022-08-23T01:13:32;10.17;;;9.37;;
8574;SDS011;4325;42.520;27.448;2022-08-23T01:16:03;10.80;;;9.97;;
8574;SDS011;4325;42.520;27.448;2022-08-23T01:18:32;10.23;;;9.33;;
8574;SDS011;4325;42.520;27.448;2022-08-23T01:21:02;10.80;;;9.60;;
8574;SDS011;4325;42.520;27.448;2022-08-23T01:23:36;10.70;;;9.73;;
8574;SDS011;4325;42.520;27.448;2022-08-23T01:26:07;14.03;;;12.83;;
8574;SDS011;4325;42.520;27.448;2022-08-23T01:28:35;10.63;;;9.73;;
8574;SDS011;4325;42.520;27.448;2022-08-23T01:31:05;11.80;;;10.43;;
8574;SDS011;4325;42.520;27.448;2022-08-23T01:33:32;12.20;;;9.67;;
8574;SDS011;4325;42.520;27.448;2022-08-23T01:35:59;12.17;;;10.00;;
8574;SDS011;4325;42.520;27.448;2022-08-23T01:38:26;12.80;;;11.10;;
8574;SDS011;4325;42.520;27.448;2022-08-23T01:40:54;10.87;;;9.63;;
8574;SDS011;4325;42.520;27.448;2022-08-23T01:43:22;11.03;;;10.03;;
8574;SDS011;4325;42.520;27.448;2022-08-23T01:45:50;10.53;;;9.40;;
8574;SDS011;4325;42.520;27.448;2022-08-23T01:48:18;12.43;;;9.53;;
8574;SDS011;4325;42.520;27.448;2022-08-23T01:50:46;10.50;;;9.43;;
8574;SDS011;4325;42.520;27.448;2022-08-23T01:53:13;10.17;;;9.13;;
8574;SDS011;4325;42.520;27.448;2022-08-23T01:55:40;11.57;;;9.17;;
8574;SDS011;4325;42.520;27.448;2022-08-23T01:58:10;10.07;;;9.17;;
8574;SDS011;4325;42.520;27.448;2022-08-23T02:00:38;11.60;;;10.40;;
8574;SDS011;4325;42.520;27.448;2022-08-23T02:03:07;12.33;;;9.77;;
8574;SDS011;4325;42.520;27.448;2022-08-23T02:05:36;13.03;;;10.53;;
8574;SDS011;4325;42.520;27.448;2022-08-23T02:08:04;12.50;;;9.43;;
8574;SDS011;4325;42.520;27.448;2022-08-23T02:10:46;11.63;;;10.53;;
8574;SDS011;4325;42.520;27.448;2022-08-23T02:13:14;11.80;;;10.70;;
8574;SDS011;4325;42.520;27.448;2022-08-23T02:15:42;13.43;;;11.70;;
8574;SDS011;4325;42.520;27.448;2022-08-23T02:18:09;11.23;;;10.03;;
8574;SDS011;4325;42.520;27.448;2022-08-23T02:20:37;11.17;;;10.07;;
8574;SDS011;4325;42.520;27.448;2022-08-23T02:23:08;11.60;;;10.50;;
8574;SDS011;4325;42.520;27.448;2022-08-23T02:25:35;10.50;;;9.50;;
8574;SDS011;4325;42.520;27.448;2022-08-23T02:28:02;10.57;;;9.60;;
8574;SDS011;4325;42.520;27.448;2022-08-23T02:30:31;12.07;;;9.87;;
8574;SDS011;4325;42.520;27.448;2022-08-23T02:32:58;9.90;;;8.87;;
8574;SDS011;4325;42.520;27.448;2022-08-23T02:35:25;12.27;;;10.03;;
8574;SDS011;4325;42.520;27.448;2022-08-23T02:37:52;10.93;;;9.77;;
8574;SDS011;4325;42.520;27.448;2022-08-23T02:40:19;12.77;;;9.87;;
8574;SDS011;4325;42.520;27.448;2022-08-23T02:42:46;12.00;;;10.83;;
8574;SDS011;4325;42.520;27.448;2022-08-23T02:45:13;13.93;;;10.37;;
8574;SDS011;4325;42.520;27.448;2022-08-23T02:47:42;11.40;;;10.40;;
8574;SDS011;4325;42.520;27.448;2022-08-23T02:50:10;12.97;;;10.23;;
8574;SDS011;4325;42.520;27.448;2022-08-23T02:52:37;18.10;;;9.63;;
8574;SDS011;4325;42.520;27.448;2022-08-23T02:55:04;10.60;;;9.50;;
8574;SDS011;4325;42.520;27.448;2022-08-23T02:57:32;11.30;;;9.60;;
8574;SDS011;4325;42.520;27.448;2022-08-23T02:59:59;12.53;;;9.87;;
8574;SDS011;4325;42.520;27.448;2022-08-23T03:02:26;12.10;;;9.40;;
8574;SDS011;4325;42.520;27.448;2022-08-23T03:04:54;18.17;;;10.03;;
8574;SDS011;4325;42.520;27.448;2022-08-23T03:07:22;10.80;;;9.70;;
8574;SDS011;4325;42.520;27.448;2022-08-23T03:09:49;11.20;;;10.07;;
8574;SDS011;4325;42.520;27.448;2022-08-23T03:12:15;13.53;;;11.30;;
8574;SDS011;4325;42.520;27.448;2022-08-23T03:14:42;17.63;;;9.87;;
8574;SDS011;4325;42.520;27.448;2022-08-23T03:17:11;11.93;;;10.73;;
8574;SDS011;4325;42.520;27.448;2022-08-23T03:19:38;11.17;;;9.87;;
8574;SDS011;4325;42.520;27.448;2022-08-23T03:22:10;10.40;;;8.53;;
8574;SDS011;4325;42.520;27.448;2022-08-23T03:24:37;17.20;;;14.60;;
8574;SDS011;4325;42.520;27.448;2022-08-23T03:27:05;12.93;;;10.00;;
8574;SDS011;4325;42.520;27.448;2022-08-23T03:29:32;13.40;;;8.80;;
8574;SDS011;4325;42.520;27.448;2022-08-23T03:31:59;14.00;;;9.13;;
8574;SDS011;4325;42.520;27.448;2022-08-23T03:34:27;9.57;;;8.20;;
8574;SDS011;4325;42.520;27.448;2022-08-23T03:36:54;13.40;;;9.13;;
8574;SDS011;4325;42.520;27.448;2022-08-23T03:39:22;8.80;;;8.10;;
8574;SDS011;4325;42.520;27.448;2022-08-23T03:41:50;11.23;;;9.30;;
8574;SDS011;4325;42.520;27.448;2022-08-23T03:44:17;15.13;;;8.43;;
8574;SDS011;4325;42.520;27.448;2022-08-23T03:46:44;11.07;;;9.60;;
8574;SDS011;4325;42.520;27.448;2022-08-23T03:49:11;12.90;;;9.40;;
8574;SDS011;4325;42.520;27.448;2022-08-23T03:51:38;12.50;;;9.73;;
8574;SDS011;4325;42.520;27.448;2022-08-23T03:54:05;12.33;;;9.80;;
8574;SDS011;4325;42.520;27.448;2022-08-23T03:56:34;11.60;;;10.27;;
8574;SDS011;4325;42.520;27.448;2022-08-23T03:59:03;18.73;;;12.50;;
8574;SDS011;4325;42.520;27.448;2022-08-23T04:01:32;14.43;;;10.47;;
8574;SDS011;4325;42.520;27.448;2022-08-23T04:03:59;14.47;;;9.43;;
8574;SDS011;4325;42.520;27.448;2022-08-23T04:06:26;11.90;;;10.83;;
8574;SDS011;4325;42.520;27.448;2022-08-23T04:08:53;13.63;;;9.57;;
8574;SDS011;4325;42.520;27.448;2022-08-23T04:11:21;11.50;;;9.70;;
8574;SDS011;4325;42.520;27.448;2022-08-23T04:13:49;16.60;;;10.57;;
8574;SDS011;4325;42.520;27.448;2022-08-23T04:16:16;13.83;;;11.17;;
8574;SDS011;4325;42.520;27.448;2022-08-23T04:18:44;21.07;;;12.83;;
8574;SDS011;4325;42.520;27.448;2022-08-23T04:21:13;16.97;;;11.77;;
8574;SDS011;4325;42.520;27.448;2022-08-23T04:23:42;12.90;;;11.47;;
8574;SDS011;4325;42.520;27.448;2022-08-23T04:26:09;11.20;;;9.87;;
8574;SDS011;4325;42.520;27.448;2022-08-23T04:28:36;18.10;;;11.70;;
8574;SDS011;4325;42.520;27.448;2022-08-23T04:31:05;20.60;;;17.47;;
8574;SDS011;4325;42.520;27.448;2022-08-23T04:33:32;18.37;;;16.40;;
8574;SDS011;4325;42.520;27.448;2022-08-23T04:36:00;13.60;;;11.20;;
8574;SDS011;4325;42.520;27.448;2022-08-23T04:38:28;14.00;;;11.37;;
8574;SDS011;4325;42.520;27.448;2022-08-23T04:40:55;13.43;;;12.10;;
8574;SDS011;4325;42.520;27.448;2022-08-23T04:43:40;21.20;;;9.20;;
8574;SDS011;4325;42.520;27.448;2022-08-23T04:46:10;11.87;;;9.43;;
8574;SDS011;4325;42.520;27.448;2022-08-23T04:48:39;16.17;;;9.53;;
8574;SDS011;4325;42.520;27.448;2022-08-23T04:51:07;17.67;;;9.80;;
8574;SDS011;4325;42.520;27.448;2022-08-23T04:53:34;17.87;;;12.67;;
8574;SDS011;4325;42.520;27.448;2022-08-23T04:56:01;13.37;;;9.20;;
8574;SDS011;4325;42.520;27.448;2022-08-23T04:58:29;10.03;;;9.03;;
8574;SDS011;4325;42.520;27.448;2022-08-23T05:00:58;18.93;;;12.23;;
8574;SDS011;4325;42.520;27.448;2022-08-23T05:03:29;18.93;;;8.70;;
8574;SDS011;4325;42.520;27.448;2022-08-23T05:05:57;24.40;;;8.50;;
8574;SDS011;4325;42.520;27.448;2022-08-23T05:08:25;12.77;;;9.07;;
8574;SDS011;4325;42.520;27.448;2022-08-23T05:10:52;14.10;;;8.00;;
8574;SDS011;4325;42.520;27.448;2022-08-23T05:13:19;14.67;;;8.50;;
8574;SDS011;4325;42.520;27.448;2022-08-23T05:15:48;9.00;;;8.10;;
8574;SDS011;4325;42.520;27.448;2022-08-23T05:18:16;18.03;;;8.77;;
8574;SDS011;4325;42.520;27.448;2022-08-23T05:20:45;18.07;;;9.23;;
8574;SDS011;4325;42.520;27.448;2022-08-23T05:23:12;15.63;;;8.23;;
8574;SDS011;4325;42.520;27.448;2022-08-23T05:25:39;13.87;;;8.33;;
8574;SDS011;4325;42.520;27.448;2022-08-23T05:28:15;12.30;;;8.83;;
8574;SDS011;4325;42.520;27.448;2022-08-23T05:30:43;14.90;;;9.00;;
8574;SDS011;4325;42.520;27.448;2022-08-23T05:33:11;10.90;;;8.77;;
8574;SDS011;4325;42.520;27.448;2022-08-23T05:35:38;19.63;;;8.70;;
8574;SDS011;4325;42.520;27.448;2022-08-23T05:38:06;16.03;;;8.60;;
8574;SDS011;4325;42.520;27.448;2022-08-23T05:40:33;17.97;;;8.90;;
8574;SDS011;4325;42.520;27.448;2022-08-23T05:43:00;19.70;;;8.57;;
8574;SDS011;4325;42.520;27.448;2022-08-23T05:45:30;17.57;;;9.03;;
8574;SDS011;4325;42.520;27.448;2022-08-23T05:47:59;13.27;;;8.93;;
8574;SDS011;4325;42.520;27.448;2022-08-23T05:50:26;11.33;;;8.93;;
8574;SDS011;4325;42.520;27.448;2022-08-23T05:52:56;13.53;;;8.53;;
8574;SDS011;4325;42.520;27.448;2022-08-23T05:55:27;13.40;;;8.83;;
8574;SDS011;4325;42.520;27.448;2022-08-23T05:57:54;15.03;;;8.07;;
8574;SDS011;4325;42.520;27.448;2022-08-23T06:00:21;16.77;;;8.50;;
8574;SDS011;4325;42.520;27.448;2022-08-23T06:02:48;16.10;;;9.07;;
8574;SDS011;4325;42.520;27.448;2022-08-23T06:05:15;13.33;;;8.83;;
8574;SDS011;4325;42.520;27.448;2022-08-23T06:07:43;10.40;;;8.90;;
8574;SDS011;4325;42.520;27.448;2022-08-23T06:10:10;17.30;;;9.10;;
8574;SDS011;4325;42.520;27.448;2022-08-23T06:12:38;12.83;;;8.77;;
8574;SDS011;4325;42.520;27.448;2022-08-23T06:15:06;20.87;;;7.83;;
8574;SDS011;4325;42.520;27.448;2022-08-23T06:17:33;12.03;;;8.20;;
8574;SDS011;4325;42.520;27.448;2022-08-23T06:20:03;12.10;;;7.73;;
8574;SDS011;4325;42.520;27.448;2022-08-23T06:22:32;14.60;;;8.00;;
8574;SDS011;4325;42.520;27.448;2022-08-23T06:24:59;13.80;;;8.13;;
8574;SDS011;4325;42.520;27.448;2022-08-23T06:27:27;11.07;;;7.40;;
8574;SDS011;4325;42.520;27.448;2022-08-23T06:29:55;13.80;;;8.10;;
8574;SDS011;4325;42.520;27.448;2022-08-23T06:32:22;13.03;;;8.40;;
8574;SDS011;4325;42.520;27.448;2022-08-23T06:34:49;13.17;;;8.13;;
8574;SDS011;4325;42.520;27.448;2022-08-23T06:37:16;11.63;;;7.57;;
8574;SDS011;4325;42.520;27.448;2022-08-23T06:39:43;19.23;;;7.87;;
8574;SDS011;4325;42.520;27.448;2022-08-23T06:42:10;11.23;;;8.20;;
8574;SDS011;4325;42.520;27.448;2022-08-23T06:44:40;17.37;;;7.83;;
8574;SDS011;4325;42.520;27.448;2022-08-23T06:47:10;11.70;;;7.00;;
8574;SDS011;4325;42.520;27.448;2022-08-23T06:49:37;9.90;;;6.77;;
8574;SDS011;4325;42.520;27.448;2022-08-23T06:52:05;11.17;;;6.00;;
8574;SDS011;4325;42.520;27.448;2022-08-23T06:54:33;8.93;;;5.70;;
8574;SDS011;4325;42.520;27.448;2022-08-23T06:57:02;12.27;;;6.03;;
8574;SDS011;4325;42.520;27.448;2022-08-23T06:59:29;11.70;;;6.63;;
8574;SDS011;4325;42.520;27.448;2022-08-23T07:01:57;11.73;;;5.90;;
8574;SDS011;4325;42.520;27.448;2022-08-23T07:04:28;11.50;;;6.00;;
8574;SDS011;4325;42.520;27.448;2022-08-23T07:06:57;8.40;;;5.83;;
8574;SDS011;4325;42.520;27.448;2022-08-23T07:09:25;13.57;;;6.30;;
8574;SDS011;4325;42.520;27.448;2022-08-23T07:11:53;13.77;;;6.20;;
8574;SDS011;4325;42.520;27.448;2022-08-23T07:14:20;15.63;;;6.47;;
8574;SDS011;4325;42.520;27.448;2022-08-23T07:16:49;16.63;;;6.33;;
8574;SDS011;4325;42.520;27.448;2022-08-23T07:19:18;19.47;;;6.37;;
8574;SDS011;4325;42.520;27.448;2022-08-23T07:21:49;14.43;;;6.87;;
8574;SDS011;4325;42.520;27.448;2022-08-23T07:24:16;15.53;;;6.77;;
8574;SDS011;4325;42.520;27.448;2022-08-23T07:26:44;13.13;;;6.10;;
8574;SDS011;4325;42.520;27.448;2022-08-23T07:29:12;12.30;;;5.80;;
8574;SDS011;4325;42.520;27.448;2022-08-23T07:31:40;12.47;;;6.03;;
8574;SDS011;4325;42.520;27.448;2022-08-23T07:34:09;12.27;;;6.33;;
8574;SDS011;4325;42.520;27.448;2022-08-23T07:36:38;10.23;;;6.00;;
8574;SDS011;4325;42.520;27.448;2022-08-23T07:39:07;14.57;;;6.20;;
8574;SDS011;4325;42.520;27.448;2022-08-23T07:41:35;16.47;;;5.67;;
8574;SDS011;4325;42.520;27.448;2022-08-23T07:44:03;12.93;;;5.97;;
8574;SDS011;4325;42.520;27.448;2022-08-23T07:46:32;10.83;;;5.77;;
8574;SDS011;4325;42.520;27.448;2022-08-23T07:49:00;15.43;;;5.77;;
8574;SDS011;4325;42.520;27.448;2022-08-23T07:51:28;18.50;;;6.30;;
8574;SDS011;4325;42.520;27.448;2022-08-23T07:53:56;10.40;;;5.83;;
8574;SDS011;4325;42.520;27.448;2022-08-23T07:56:25;15.70;;;5.80;;
8574;SDS011;4325;42.520;27.448;2022-08-23T07:58:53;15.27;;;5.73;;
8574;SDS011;4325;42.520;27.448;2022-08-23T08:01:21;14.77;;;6.03;;
8574;SDS011;4325;42.520;27.448;2022-08-23T08:03:50;16.70;;;7.27;;
8574;SDS011;4325;42.520;27.448;2022-08-23T08:06:20;16.87;;;6.10;;
8574;SDS011;4325;42.520;27.448;2022-08-23T08:08:48;14.53;;;6.03;;
8574;SDS011;4325;42.520;27.448;2022-08-23T08:11:16;21.60;;;6.43;;
8574;SDS011;4325;42.520;27.448;2022-08-23T08:13:47;12.87;;;5.57;;
8574;SDS011;4325;42.520;27.448;2022-08-23T08:16:20;18.57;;;6.20;;
8574;SDS011;4325;42.520;27.448;2022-08-23T08:18:48;15.97;;;5.67;;
8574;SDS011;4325;42.520;27.448;2022-08-23T08:21:16;17.63;;;5.37;;
8574;SDS011;4325;42.520;27.448;2022-08-23T08:23:44;19.70;;;6.17;;
8574;SDS011;4325;42.520;27.448;2022-08-23T08:26:11;15.80;;;5.37;;
8574;SDS011;4325;42.520;27.448;2022-08-23T08:28:38;15.33;;;5.27;;
8574;SDS011;4325;42.520;27.448;2022-08-23T08:31:07;19.00;;;5.37;;
8574;SDS011;4325;42.520;27.448;2022-08-23T08:33:35;14.60;;;6.07;;
8574;SDS011;4325;42.520;27.448;2022-08-23T08:36:03;12.23;;;5.73;;
8574;SDS011;4325;42.520;27.448;2022-08-23T08:38:30;19.60;;;6.60;;
8574;SDS011;4325;42.520;27.448;2022-08-23T08:40:59;15.40;;;6.43;;
8574;SDS011;4325;42.520;27.448;2022-08-23T08:43:38;15.80;;;6.37;;
8574;SDS011;4325;42.520;27.448;2022-08-23T08:46:21;21.10;;;6.60;;
8574;SDS011;4325;42.520;27.448;2022-08-23T08:48:54;17.73;;;5.87;;
8574;SDS011;4325;42.520;27.448;2022-08-23T08:51:32;19.80;;;6.60;;
8574;SDS011;4325;42.520;27.448;2022-08-23T08:54:10;11.70;;;5.43;;
8574;SDS011;4325;42.520;27.448;2022-08-23T08:56:40;15.53;;;5.57;;
8574;SDS011;4325;42.520;27.448;2022-08-23T08:59:11;13.83;;;5.10;;
8574;SDS011;4325;42.520;27.448;2022-08-23T09:01:45;11.57;;;4.80;;
8574;SDS011;4325;42.520;27.448;2022-08-23T09:04:12;17.63;;;5.13;;
8574;SDS011;4325;42.520;27.448;2022-08-23T09:06:42;12.73;;;5.88;;
8574;SDS011;4325;42.520;27.448;2022-08-23T09:09:23;16.00;;;4.88;;
8574;SDS011;4325;42.520;27.448;2022-08-23T09:12:04;12.45;;;4.28;;
8574;SDS011;4325;42.520;27.448;2022-08-23T09:14:50;12.48;;;5.47;;
8574;SDS011;4325;42.520;27.448;2022-08-23T09:17:27;14.75;;;4.50;;
8574;SDS011;4325;42.520;27.448;2022-08-23T09:20:02;8.85;;;4.53;;
8574;SDS011;4325;42.520;27.448;2022-08-23T09:22:32;17.55;;;4.60;;
8574;SDS011;4325;42.520;27.448;2022-08-23T09:25:03;14.52;;;4.47;;
8574;SDS011;4325;42.520;27.448;2022-08-23T09:27:30;14.38;;;4.50;;
8574;SDS011;4325;42.520;27.448;2022-08-23T09:29:59;11.93;;;4.25;;
8574;SDS011;4325;42.520;27.448;2022-08-23T09:32:32;16.92;;;4.75;;
8574;SDS011;4325;42.520;27.448;2022-08-23T09:35:09;14.40;;;5.53;;
8574;SDS011;4325;42.520;27.448;2022-08-23T09:37:47;14.43;;;5.28;;
8574;SDS011;4325;42.520;27.448;2022-08-23T09:40:19;15.43;;;4.70;;
8574;SDS011;4325;42.520;27.448;2022-08-23T09:43:03;16.20;;;5.40;;
8574;SDS011;4325;42.520;27.448;2022-08-23T09:45:33;25.17;;;4.93;;
8574;SDS011;4325;42.520;27.448;2022-08-23T09:48:03;16.95;;;4.75;;
8574;SDS011;4325;42.520;27.448;2022-08-23T09:50:31;24.42;;;5.70;;
8574;SDS011;4325;42.520;27.448;2022-08-23T09:53:05;26.50;;;6.13;;
8574;SDS011;4325;42.520;27.448;2022-08-23T09:55:35;16.10;;;4.88;;
8574;SDS011;4325;42.520;27.448;2022-08-23T09:58:04;14.00;;;5.53;;
8574;SDS011;4325;42.520;27.448;2022-08-23T10:00:41;20.40;;;5.63;;
8574;SDS011;4325;42.520;27.448;2022-08-23T10:05:55;18.23;;;5.43;;
8574;SDS011;4325;42.520;27.448;2022-08-23T10:08:25;18.80;;;5.25;;
8574;SDS011;4325;42.520;27.448;2022-08-23T10:10:54;12.82;;;4.80;;
8574;SDS011;4325;42.520;27.448;2022-08-23T10:13:24;12.98;;;5.10;;
8574;SDS011;4325;42.520;27.448;2022-08-23T10:15:55;13.88;;;4.25;;
8574;SDS011;4325;42.520;27.448;2022-08-23T10:18:38;15.07;;;5.10;;
8574;SDS011;4325;42.520;27.448;2022-08-23T10:21:16;15.20;;;4.70;;
8574;SDS011;4325;42.520;27.448;2022-08-23T10:23:49;16.90;;;5.05;;
8574;SDS011;4325;42.520;27.448;2022-08-23T10:26:33;19.65;;;5.45;;
8574;SDS011;4325;42.520;27.448;2022-08-23T10:29:06;29.77;;;4.93;;
8574;SDS011;4325;42.520;27.448;2022-08-23T10:32:00;18.40;;;5.65;;
8574;SDS011;4325;42.520;27.448;2022-08-23T10:34:41;13.70;;;4.90;;
8574;SDS011;4325;42.520;27.448;2022-08-23T10:37:20;18.95;;;4.35;;
8574;SDS011;4325;42.520;27.448;2022-08-23T10:39:55;14.73;;;4.90;;
8574;SDS011;4325;42.520;27.448;2022-08-23T10:42:30;19.45;;;6.38;;
8574;SDS011;4325;42.520;27.448;2022-08-23T10:45:06;17.90;;;4.43;;
8574;SDS011;4325;42.520;27.448;2022-08-23T10:47:44;14.10;;;4.25;;
8574;SDS011;4325;42.520;27.448;2022-08-23T10:50:25;18.50;;;4.63;;
8574;SDS011;4325;42.520;27.448;2022-08-23T10:52:57;16.63;;;5.57;;
8574;SDS011;4325;42.520;27.448;2022-08-23T10:55:32;20.50;;;5.97;;
8574;SDS011;4325;42.520;27.448;2022-08-23T10:58:20;27.20;;;5.82;;
8574;SDS011;4325;42.520;27.448;2022-08-23T11:00:50;22.95;;;5.95;;
8574;SDS011;4325;42.520;27.448;2022-08-23T11:03:22;29.90;;;5.82;;
8574;SDS011;4325;42.520;27.448;2022-08-23T11:15:07;25.25;;;6.45;;
8574;SDS011;4325;42.520;27.448;2022-08-23T11:17:40;28.58;;;6.13;;
8574;SDS011;4325;42.520;27.448;2022-08-23T11:23:35;25.70;;;5.68;;
8574;SDS011;4325;42.520;27.448;2022-08-23T11:26:06;25.52;;;6.07;;
8574;SDS011;4325;42.520;27.448;2022-08-23T11:28:39;37.85;;;6.72;;
8574;SDS011;4325;42.520;27.448;2022-08-23T11:34:01;26.58;;;6.28;;
8574;SDS011;4325;42.520;27.448;2022-08-23T11:36:32;28.58;;;6.57;;
8574;SDS011;4325;42.520;27.448;2022-08-23T11:39:05;29.08;;;6.68;;
8574;SDS011;4325;42.520;27.448;2022-08-23T11:41:35;29.85;;;6.10;;
8574;SDS011;4325;42.520;27.448;2022-08-23T11:44:32;18.83;;;5.32;;
8574;SDS011;4325;42.520;27.448;2022-08-23T11:47:05;20.60;;;5.40;;
8574;SDS011;4325;42.520;27.448;2022-08-23T11:49:42;20.75;;;6.40;;
8574;SDS011;4325;42.520;27.448;2022-08-23T11:52:33;23.88;;;5.93;;
8574;SDS011;4325;42.520;27.448;2022-08-23T11:55:21;34.72;;;5.82;;
8574;SDS011;4325;42.520;27.448;2022-08-23T11:58:03;28.95;;;5.55;;
8574;SDS011;4325;42.520;27.448;2022-08-23T12:03:34;25.02;;;5.57;;
8574;SDS011;4325;42.520;27.448;2022-08-23T12:06:10;32.17;;;6.25;;
8574;SDS011;4325;42.520;27.448;2022-08-23T12:08:46;28.63;;;6.72;;
8574;SDS011;4325;42.520;27.448;2022-08-23T12:11:16;20.60;;;5.18;;
8574;SDS011;4325;42.520;27.448;2022-08-23T12:13:47;23.15;;;6.00;;
8574;SDS011;4325;42.520;27.448;2022-08-23T12:16:31;32.15;;;6.05;;
8574;SDS011;4325;42.520;27.448;2022-08-23T12:19:04;23.55;;;6.22;;
8574;SDS011;4325;42.520;27.448;2022-08-23T12:21:44;20.73;;;5.50;;
8574;SDS011;4325;42.520;27.448;2022-08-23T12:24:19;32.15;;;6.40;;
8574;SDS011;4325;42.520;27.448;2022-08-23T12:27:02;29.55;;;5.63;;
8574;SDS011;4325;42.520;27.448;2022-08-23T12:29:37;30.52;;;6.88;;
8574;SDS011;4325;42.520;27.448;2022-08-23T12:32:12;29.67;;;6.53;;
8574;SDS011;4325;42.520;27.448;2022-08-23T12:34:47;27.02;;;5.63;;
8574;SDS011;4325;42.520;27.448;2022-08-23T12:37:28;26.58;;;5.47;;
8574;SDS011;4325;42.520;27.448;2022-08-23T12:40:03;20.90;;;5.82;;
8574;SDS011;4325;42.520;27.448;2022-08-23T12:42:37;22.33;;;5.82;;
8574;SDS011;4325;42.520;27.448;2022-08-23T12:45:06;26.50;;;6.05;;
8574;SDS011;4325;42.520;27.448;2022-08-23T12:47:39;26.55;;;5.60;;
8574;SDS011;4325;42.520;27.448;2022-08-23T12:50:08;21.98;;;6.13;;
8574;SDS011;4325;42.520;27.448;2022-08-23T12:52:55;29.50;;;6.25;;
8574;SDS011;4325;42.520;27.448;2022-08-23T12:55:28;21.70;;;5.60;;
8574;SDS011;4325;42.520;27.448;2022-08-23T12:57:57;27.25;;;5.88;;
8574;SDS011;4325;42.520;27.448;2022-08-23T13:00:25;31.25;;;5.85;;
8574;SDS011;4325;42.520;27.448;2022-08-23T13:02:56;22.10;;;5.82;;
8574;SDS011;4325;42.520;27.448;2022-08-23T13:05:31;24.27;;;5.85;;
8574;SDS011;4325;42.520;27.448;2022-08-23T13:08:05;23.77;;;5.50;;
8574;SDS011;4325;42.520;27.448;2022-08-23T13:10:36;28.35;;;5.95;;
8574;SDS011;4325;42.520;27.448;2022-08-23T13:13:07;21.65;;;5.65;;
8574;SDS011;4325;42.520;27.448;2022-08-23T13:15:40;32.97;;;6.03;;
8574;SDS011;4325;42.520;27.448;2022-08-23T13:18:23;27.35;;;6.38;;
8574;SDS011;4325;42.520;27.448;2022-08-23T13:23:53;24.08;;;5.82;;
8574;SDS011;4325;42.520;27.448;2022-08-23T13:26:22;27.90;;;5.43;;
8574;SDS011;4325;42.520;27.448;2022-08-23T13:29:01;23.60;;;4.85;;
8574;SDS011;4325;42.520;27.448;2022-08-23T13:34:36;22.65;;;6.13;;
8574;SDS011;4325;42.520;27.448;2022-08-23T13:37:08;26.38;;;6.13;;
8574;SDS011;4325;42.520;27.448;2022-08-23T13:39:45;21.83;;;5.72;;
8574;SDS011;4325;42.520;27.448;2022-08-23T13:42:15;25.73;;;6.53;;
8574;SDS011;4325;42.520;27.448;2022-08-23T13:44:51;23.33;;;6.43;;
8574;SDS011;4325;42.520;27.448;2022-08-23T13:47:20;20.30;;;5.97;;
8574;SDS011;4325;42.520;27.448;2022-08-23T13:49:49;22.73;;;6.30;;
8574;SDS011;4325;42.520;27.448;2022-08-23T13:52:17;30.80;;;8.57;;
8574;SDS011;4325;42.520;27.448;2022-08-23T13:54:45;35.83;;;7.17;;
8574;SDS011;4325;42.520;27.448;2022-08-23T13:57:14;33.13;;;6.93;;
8574;SDS011;4325;42.520;27.448;2022-08-23T13:59:46;31.50;;;7.23;;
8574;SDS011;4325;42.520;27.448;2022-08-23T14:02:15;26.50;;;6.37;;
8574;SDS011;4325;42.520;27.448;2022-08-23T14:04:43;36.83;;;5.67;;
8574;SDS011;4325;42.520;27.448;2022-08-23T14:07:11;25.00;;;6.57;;
8574;SDS011;4325;42.520;27.448;2022-08-23T14:09:39;25.73;;;6.23;;
8574;SDS011;4325;42.520;27.448;2022-08-23T14:12:10;33.17;;;6.97;;
8574;SDS011;4325;42.520;27.448;2022-08-23T14:14:40;25.93;;;7.00;;
8574;SDS011;4325;42.520;27.448;2022-08-23T14:17:08;23.63;;;6.90;;
8574;SDS011;4325;42.520;27.448;2022-08-23T14:19:36;24.80;;;5.97;;
8574;SDS011;4325;42.520;27.448;2022-08-23T14:22:03;22.07;;;6.57;;
8574;SDS011;4325;42.520;27.448;2022-08-23T14:24:30;25.60;;;6.23;;
8574;SDS011;4325;42.520;27.448;2022-08-23T14:26:57;28.80;;;6.37;;
8574;SDS011;4325;42.520;27.448;2022-08-23T14:29:26;24.97;;;7.93;;
8574;SDS011;4325;42.520;27.448;2022-08-23T14:31:55;25.77;;;7.53;;
8574;SDS011;4325;42.520;27.448;2022-08-23T14:34:22;25.50;;;6.97;;
8574;SDS011;4325;42.520;27.448;2022-08-23T14:36:50;25.43;;;6.67;;
8574;SDS011;4325;42.520;27.448;2022-08-23T14:39:18;20.87;;;6.33;;
8574;SDS011;4325;42.520;27.448;2022-08-23T14:41:45;27.93;;;7.17;;
8574;SDS011;4325;42.520;27.448;2022-08-23T14:44:12;27.47;;;7.57;;
8574;SDS011;4325;42.520;27.448;2022-08-23T14:46:42;26.60;;;7.20;;
8574;SDS011;4325;42.520;27.448;2022-08-23T14:49:09;26.30;;;7.70;;
8574;SDS011;4325;42.520;27.448;2022-08-23T14:51:39;28.93;;;7.63;;
8574;SDS011;4325;42.520;27.448;2022-08-23T14:54:11;22.60;;;6.60;;
8574;SDS011;4325;42.520;27.448;2022-08-23T14:56:40;28.50;;;7.30;;
8574;SDS011;4325;42.520;27.448;2022-08-23T14:59:07;32.30;;;7.00;;
8574;SDS011;4325;42.520;27.448;2022-08-23T15:01:34;22.20;;;6.97;;
8574;SDS011;4325;42.520;27.448;2022-08-23T15:04:03;25.90;;;7.57;;
8574;SDS011;4325;42.520;27.448;2022-08-23T15:06:30;23.60;;;7.37;;
8574;SDS011;4325;42.520;27.448;2022-08-23T15:08:57;34.73;;;7.70;;
8574;SDS011;4325;42.520;27.448;2022-08-23T15:11:24;25.10;;;7.17;;
8574;SDS011;4325;42.520;27.448;2022-08-23T15:13:52;31.50;;;7.17;;
8574;SDS011;4325;42.520;27.448;2022-08-23T15:16:19;31.60;;;7.97;;
8574;SDS011;4325;42.520;27.448;2022-08-23T15:18:48;27.77;;;7.23;;
8574;SDS011;4325;42.520;27.448;2022-08-23T15:21:18;31.63;;;7.10;;
8574;SDS011;4325;42.520;27.448;2022-08-23T15:23:45;33.27;;;7.50;;
8574;SDS011;4325;42.520;27.448;2022-08-23T15:26:12;33.83;;;8.10;;
8574;SDS011;4325;42.520;27.448;2022-08-23T15:28:43;27.63;;;7.53;;
8574;SDS011;4325;42.520;27.448;2022-08-23T15:31:10;30.87;;;7.80;;
8574;SDS011;4325;42.520;27.448;2022-08-23T15:33:37;23.53;;;6.83;;